Terminal Aerodrome Forecast
Issued by NWS

Home | Current Version | Previous Version | Graphics & Text | Print | Product List | Glossary On
Versions: 1 2 3 4 5 6 7 8 9 10 11 12 13 14 15 16 17 18 19
000
FTUS43 KICT 281137
TAFSLN
TAF
KSLN 281137Z 2812/2912 11004KT P6SM OVC025
     FM281500 11005KT P6SM OVC025
     FM282200 08016KT P6SM VCSH OVC025
     FM290300 07016KT 6SM SHRA OVC010
     FM290600 05015G25KT 2SM SHRA OVC004=

USA.gov is the U.S. government's official web portal to all federal, state and local government web resources and services.